Sterling, MI

3:49 PM EDT on June 03, 2015 (GMT -0400)
Oscoda-Wurtsmith | | Change Station
CLOSE
Current Station
Airport
Location: Oscoda,
Elevation: 633 ft
Nearby Weather Stations

Elev 633 ft 44.45 °N, 83.39 °W | Updated 15 minutes ago

Clear
Clear
67 °F
Feels Like 67 °F
N
9
Wind Variable Wind from ESE

Today
High -- | Low -- °F
--% Chance of Precip.
Yesterday
High -- | Low -- °F
Precip. -- in
5:55 AM 9:13 PM
Full, 98% visible
Pressure 30.11 in
Visibility 10.0 miles
Clouds Clear
Dew Point 50 °F
Humidity 54%
Rainfall 0.00 in
Snow Depth Not available.
UV 9 out of 12
Pollen 8.00 out of 12
Air Quality Not available.
Flu Activity Sporadic
METAR KOSC 031934Z AUTO 11008KT 10SM CLR 19/09 A3011 RMK AO2 T01920097

More Conditions Fewer Conditions

Pressure 30.11 in
Visibility 10.0 miles
Clouds Clear
Dew Point 50 °F
Humidity 54%
Rainfall 0.00 in
Snow Depth Not available.
UV 9 out of 12
Pollen 8.00 out of 12
Air Quality Not available.
Flu Activity Sporadic
METAR KOSC 031934Z AUTO 11008KT 10SM CLR 19/09 A3011 RMK AO2 T01920097

More Conditions Fewer Conditions

Nowcast | as of 3:00 PM EDT on June 3, 2015

At 4 PM...mostly clear. Temperature 73. Southeast winds 8 mph. At 6 PM...mostly clear. Temperature 73. Southeast winds 6 mph. At 8 PM...mostly clear. Temperature 70. Southeast winds 5 mph. At 10 PM...mostly clear. Temperature 61. Light winds.

×

10-Day Weather Forecast

×

Almanac

Astronomy

Jun. 03, 2015 Rise Set
Actual Time
Civil Twilight
Nautical Twilight
Astronomical Twilight
Moon
Length of Visible Light
Length of Day
Tomorrow will be .
, % of the Moon is Illuminated

Today's Extremes

State Highs State Lows

Community

WunderPhotos

Upload Photos

1,826,274 photos uploaded!

WunderBlogs® & News

Nearby

Air Quality

  Air Quality AQ Index Pollutant
Not available.

Snow Depth

Station Depth Elevation

Earthquake Activity

City Distance Mag. Time & Date
Minimum magnitude displayed is 2.5.

Coastal Water Temperatures

Place Temperature

Stations

Nearby Weather Stations

Station Location Temp. Windchill Dew Point Humidity Wind Precip. Elev Updated Type